Hattitude — VMQ9684 — position and weather

sailwx.info

Track history (hours):
 
Tides and Currents Weather Stations Pressure Air Temp Water Temp Dewpoint Dewpoint Depression Visibility Wind Speed Wind Dir Waves Ship Positions

Hattitude

Last reported at 2018-Jan-20 06:40 UTC. Time now 2018-Feb-26 03:14 UTC.
Position S 27°58' E 153°26'.
Warning: this ship's position is 36 days out of date.

Length 20 m.

Type: Pleasure craft. MMSI: 503459200.

Date/timePositionNaut miles runAvg speedWind from/ knotsBaromVisibWave heightAir tempDewpointWater temp
2018-Jan-20 06:40S 27°58' E 153°26'1 6.2
2018-Jan-20 06:30S 27°57' E 153°25'611.7
2018-Jan-20 05:59S 27°57' E 153°32'3 5.2
2018-Jan-20 05:26S 27°57' E 153°35'0 0.9
2018-Jan-20 04:55S 27°57' E 153°36'0 0.4
2018-Jan-20 04:28S 27°57' E 153°36'2 4.9
2018-Jan-20 04:00S 27°54' E 153°36'0 0.7
2018-Jan-20 03:29S 27°54' E 153°36'1 1.7
2018-Jan-20 02:52S 27°54' E 153°37'0 0.3
2018-Jan-20 02:27S 27°54' E 153°37'0 0.7
2018-Jan-20 02:00S 27°54' E 153°37'0 0.4
2018-Jan-20 01:29S 27°54' E 153°37'1 1.0
2018-Jan-20 00:57S 27°54' E 153°37'0 0.4
2018-Jan-20 00:30S 27°54' E 153°37'1 1.0
2018-Jan-19 23:59S 27°54' E 153°37'0 0.3
2018-Jan-19 23:30S 27°54' E 153°37'0 0.8
2018-Jan-19 23:00S 27°54' E 153°37'3 5.4
2018-Jan-19 22:30S 27°53' E 153°34'3 5.5
2018-Jan-19 21:58S 27°53' E 153°30'1 1.8
2018-Jan-19 21:30S 27°53' E 153°29'0 0.9
2018-Jan-19 21:00S 27°53' E 153°29'1 2.3
2018-Jan-19 20:30S 27°53' E 153°28'5 9.1
2018-Jan-19 20:00S 27°57' E 153°25'1 0.1
2018-Jan-19 06:45S 27°58' E 153°26'2 5.9
2018-Jan-19 06:29S 27°57' E 153°25'611.5
2018-Jan-19 06:01S 27°56' E 153°31'3 5.9
2018-Jan-19 05:30S 27°56' E 153°35'6 2.0
2018-Jan-19 02:12S 27°58' E 153°42'1 4.3
2018-Jan-19 01:56S 27°59' E 153°42'2 3.6
2018-Jan-19 01:23S 28°00' E 153°41'2 3.9
2018-Jan-19 00:55S 28°02' E 153°41'2 4.4
2018-Jan-19 00:25S 28°03' E 153°38'1 1.3
2018-Jan-19 00:00S 28°03' E 153°38'1 1.5
2018-Jan-18 23:30S 28°03' E 153°39'2 3.8
2018-Jan-18 23:00S 28°01' E 153°37'2 4.1
2018-Jan-18 22:30S 27°59' E 153°37'2 4.3
2018-Jan-18 22:00S 27°59' E 153°39'1 1.8
2018-Jan-18 21:29S 27°58' E 153°40'1 2.0
2018-Jan-18 21:00S 27°57' E 153°40'4 7.5
2018-Jan-18 20:31S 27°57' E 153°36'714.3
2018-Jan-18 20:01S 27°56' E 153°28'3 0.3
2018-Jan-18 08:55S 27°58' E 153°26'3 6.5
2018-Jan-18 08:31S 27°56' E 153°25'4 7.7
2018-Jan-18 08:00S 27°52' E 153°23'2 3.1
2018-Jan-18 07:30S 27°51' E 153°22'  
Track history (hours):
 
Tides and Currents Weather Stations Pressure Air Temp Water Temp Dewpoint Dewpoint Depression Visibility Wind Speed Wind Dir Waves Ship Positions

Hattitude

Last reported at 2018-Jan-20 06:40 UTC. Time now 2018-Feb-26 03:14 UTC.
Position S 27°58' E 153°26'.
Warning: this ship's position is 36 days out of date.

Length 20 m.

Type: Pleasure craft. MMSI: 503459200.

Date/timePositionNaut miles runAvg speedWind from/ knotsBaromVisibWave heightAir tempDewpointWater temp
2018-Jan-20 06:40S 27°58' E 153°26'1 6.2
2018-Jan-20 06:30S 27°57' E 153°25'611.7
2018-Jan-20 05:59S 27°57' E 153°32'3 5.2
2018-Jan-20 05:26S 27°57' E 153°35'0 0.9
2018-Jan-20 04:55S 27°57' E 153°36'0 0.4
2018-Jan-20 04:28S 27°57' E 153°36'2 4.9
2018-Jan-20 04:00S 27°54' E 153°36'0 0.7
2018-Jan-20 03:29S 27°54' E 153°36'1 1.7
2018-Jan-20 02:52S 27°54' E 153°37'0 0.3
2018-Jan-20 02:27S 27°54' E 153°37'0 0.7
2018-Jan-20 02:00S 27°54' E 153°37'0 0.4
2018-Jan-20 01:29S 27°54' E 153°37'1 1.0
2018-Jan-20 00:57S 27°54' E 153°37'0 0.4
2018-Jan-20 00:30S 27°54' E 153°37'1 1.0
2018-Jan-19 23:59S 27°54' E 153°37'0 0.3
2018-Jan-19 23:30S 27°54' E 153°37'0 0.8
2018-Jan-19 23:00S 27°54' E 153°37'3 5.4
2018-Jan-19 22:30S 27°53' E 153°34'3 5.5
2018-Jan-19 21:58S 27°53' E 153°30'1 1.8
2018-Jan-19 21:30S 27°53' E 153°29'0 0.9
2018-Jan-19 21:00S 27°53' E 153°29'1 2.3
2018-Jan-19 20:30S 27°53' E 153°28'5 9.1
2018-Jan-19 20:00S 27°57' E 153°25'1 0.1
2018-Jan-19 06:45S 27°58' E 153°26'2 5.9
2018-Jan-19 06:29S 27°57' E 153°25'611.5
2018-Jan-19 06:01S 27°56' E 153°31'3 5.9
2018-Jan-19 05:30S 27°56' E 153°35'6 2.0
2018-Jan-19 02:12S 27°58' E 153°42'1 4.3
2018-Jan-19 01:56S 27°59' E 153°42'2 3.6
2018-Jan-19 01:23S 28°00' E 153°41'2 3.9
2018-Jan-19 00:55S 28°02' E 153°41'2 4.4
2018-Jan-19 00:25S 28°03' E 153°38'1 1.3
2018-Jan-19 00:00S 28°03' E 153°38'1 1.5
2018-Jan-18 23:30S 28°03' E 153°39'2 3.8
2018-Jan-18 23:00S 28°01' E 153°37'2 4.1
2018-Jan-18 22:30S 27°59' E 153°37'2 4.3
2018-Jan-18 22:00S 27°59' E 153°39'1 1.8
2018-Jan-18 21:29S 27°58' E 153°40'1 2.0
2018-Jan-18 21:00S 27°57' E 153°40'4 7.5
2018-Jan-18 20:31S 27°57' E 153°36'714.3
2018-Jan-18 20:01S 27°56' E 153°28'3 0.3
2018-Jan-18 08:55S 27°58' E 153°26'3 6.5
2018-Jan-18 08:31S 27°56' E 153°25'4 7.7
2018-Jan-18 08:00S 27°52' E 153°23'2 3.1
2018-Jan-18 07:30S 27°51' E 153°22'  

Dump ship's entire track history